Time;durP1;ratioP1;P1;durP2;ratioP2;P2;SDS_P1;SDS_P2;PMS_P1;PMS_P2;Temp;Humidity;BMP_temperature;BMP_pressure;BME280_temperature;BME280_humidity;BME280_pressure;Samples;Min_cycle;Max_cycle;Signal;HPM_P1;HPM_P2
2022/10/02 00:02:34;;;;;;;10.55;2.20;;;11.10;99.90;;;;;;5108822;28;20353;-82
2022/10/02 00:05:33;;;;;;;4.72;1.60;;;11.10;99.90;;;;;;5098271;28;20040;-82
2022/10/02 00:08:10;;;;;;;6.28;1.55;;;11.10;99.90;;;;;;5105879;28;20752;-82
2022/10/02 00:11:04;;;;;;;6.20;1.60;;;11.20;99.90;;;;;;5098049;28;20090;-82
2022/10/02 00:13:41;;;;;;;10.40;1.80;;;11.20;99.90;;;;;;5121008;28;20032;-82
2022/10/02 00:16:19;;;;;;;17.42;2.22;;;11.20;99.90;;;;;;5108903;28;20036;-82
2022/10/02 00:18:48;;;;;;;10.45;1.83;;;11.10;99.90;;;;;;5108934;28;20070;-82
2022/10/02 00:21:32;;;;;;;6.50;1.85;;;11.20;99.90;;;;;;5109080;28;20492;-82
2022/10/02 00:24:02;;;;;;;5.32;1.27;;;11.20;99.90;;;;;;5109236;28;20040;-81
2022/10/02 00:26:41;;;;;;;3.50;1.17;;;11.20;99.90;;;;;;5109592;28;20468;-82
2022/10/02 00:29:28;;;;;;;4.75;1.42;;;11.30;99.90;;;;;;5113278;28;20503;-82
2022/10/02 00:32:31;;;;;;;8.30;1.30;;;11.30;99.90;;;;;;5112889;28;20123;-81
2022/10/02 00:35:44;;;;;;;5.28;1.40;;;11.20;99.90;;;;;;5112720;28;20047;-81
2022/10/02 00:38:51;;;;;;;8.00;1.55;;;11.20;99.90;;;;;;5128762;28;20082;-81
2022/10/02 00:41:59;;;;;;;8.10;1.80;;;11.20;99.90;;;;;;5108905;28;20044;-82
2022/10/02 00:44:53;;;;;;;8.43;1.52;;;11.10;99.90;;;;;;5096101;28;20051;-81
2022/10/02 00:47:41;;;;;;;9.18;1.60;;;11.10;99.90;;;;;;5109498;28;20083;-82
2022/10/02 00:50:46;;;;;;;6.95;2.05;;;11.10;99.90;;;;;;5092651;28;20500;-82
2022/10/02 00:53:22;;;;;;;11.70;2.10;;;11.10;99.90;;;;;;5074895;28;20114;-81
2022/10/02 00:55:56;;;;;;;9.05;2.13;;;11.10;99.90;;;;;;5124099;28;20403;-82
2022/10/02 00:58:54;;;;;;;11.85;3.15;;;11.10;99.90;;;;;;5112736;28;20039;-82
2022/10/02 01:01:50;;;;;;;10.05;2.30;;;11.10;99.90;;;;;;5112788;28;20035;-81
2022/10/02 01:04:30;;;;;;;9.50;2.22;;;11.20;99.90;;;;;;5112790;28;20058;-81
2022/10/02 01:06:57;;;;;;;12.02;2.30;;;11.10;99.90;;;;;;5112143;28;20036;-82
2022/10/02 01:09:24;;;;;;;9.02;2.13;;;11.10;99.90;;;;;;5095837;28;20377;-82
2022/10/02 01:11:51;;;;;;;6.97;2.30;;;11.10;99.90;;;;;;5128968;28;20032;-81
2022/10/02 01:14:18;;;;;;;7.45;1.90;;;11.10;99.90;;;;;;5079077;28;20075;-82
2022/10/02 01:16:45;;;;;;;8.77;2.03;;;11.00;99.90;;;;;;5112028;28;20549;-81
2022/10/02 01:19:47;;;;;;;11.27;2.05;;;11.00;99.90;;;;;;5112049;28;20123;-81
2022/10/02 01:22:45;;;;;;;11.18;2.00;;;10.90;99.90;;;;;;5091273;28;20037;-81
2022/10/02 01:25:12;;;;;;;8.73;1.92;;;10.90;99.90;;;;;;5121204;28;20045;-82
2022/10/02 01:27:39;;;;;;;6.97;1.85;;;10.90;99.90;;;;;;5083563;28;20545;-81
2022/10/02 01:30:07;;;;;;;6.15;2.00;;;10.90;99.90;;;;;;5087329;28;20044;-82
2022/10/02 01:32:42;;;;;;;7.70;1.50;;;10.80;99.90;;;;;;5109452;28;20119;-82
2022/10/02 01:35:09;;;;;;;8.48;1.65;;;10.80;99.90;;;;;;5111662;28;20040;-82
2022/10/02 01:37:40;;;;;;;6.07;1.75;;;10.70;99.90;;;;;;5092489;28;20613;-82
2022/10/02 01:40:09;;;;;;;7.65;1.52;;;10.70;99.90;;;;;;5124563;28;20032;-82
2022/10/02 01:42:38;;;;;;;12.75;1.77;;;10.60;99.90;;;;;;5092789;28;20028;-82
2022/10/02 01:45:07;;;;;;;9.57;1.65;;;10.60;99.90;;;;;;5074777;28;20044;-82
2022/10/02 01:47:34;;;;;;;7.40;2.10;;;10.60;99.90;;;;;;5090049;28;20419;-82
2022/10/02 01:50:16;;;;;;;10.73;1.98;;;10.60;99.90;;;;;;5091279;28;20037;-82
2022/10/02 01:52:57;;;;;;;6.18;1.92;;;10.50;99.90;;;;;;5108488;28;20047;-82
2022/10/02 01:55:30;;;;;;;7.45;1.83;;;10.50;99.90;;;;;;5091261;28;20161;-83
2022/10/02 01:58:28;;;;;;;10.85;1.80;;;10.50;99.90;;;;;;5091389;28;20057;-83
2022/10/02 02:01:21;;;;;;;7.78;1.63;;;10.50;99.90;;;;;;5091108;28;20241;-82
2022/10/02 02:04:09;;;;;;;5.63;1.80;;;10.40;99.90;;;;;;5091800;28;20123;-83
2022/10/02 02:06:55;;;;;;;14.43;1.90;;;10.40;99.90;;;;;;5091498;28;20439;-82
2022/10/02 02:09:50;;;;;;;10.23;2.28;;;10.40;99.90;;;;;;5091201;28;20040;-82
2022/10/02 02:12:31;;;;;;;7.18;1.67;;;10.40;99.90;;;;;;5091140;28;20132;-82
2022/10/02 02:15:05;;;;;;;9.43;1.45;;;10.30;99.90;;;;;;5090907;28;20078;-83
2022/10/02 02:17:42;;;;;;;9.35;1.60;;;10.30;99.90;;;;;;5091264;28;20037;-82
2022/10/02 02:20:16;;;;;;;4.90;1.20;;;10.30;99.90;;;;;;5091815;28;20467;-82
2022/10/02 02:22:46;;;;;;;7.55;1.75;;;10.20;99.90;;;;;;5111049;28;20110;-82
2022/10/02 02:25:18;;;;;;;9.60;1.40;;;10.20;99.90;;;;;;5110375;28;20038;-82
2022/10/02 02:27:52;;;;;;;6.35;1.40;;;10.10;99.90;;;;;;5111034;28;20040;-82
2022/10/02 02:30:20;;;;;;;7.28;1.58;;;10.10;99.90;;;;;;5110873;28;20040;-82
2022/10/02 02:32:52;;;;;;;8.93;1.67;;;10.10;99.90;;;;;;5110908;28;20051;-82
2022/10/02 02:35:27;;;;;;;3.63;1.40;;;10.00;99.90;;;;;;5110693;28;20488;-82
2022/10/02 02:38:00;;;;;;;6.78;1.40;;;10.10;99.90;;;;;;5127821;28;20039;-82
2022/10/02 02:40:30;;;;;;;6.47;1.40;;;10.10;99.90;;;;;;5110761;28;20115;-83
2022/10/02 02:43:08;;;;;;;4.60;1.38;;;10.10;99.90;;;;;;5110364;28;20043;-82
2022/10/02 02:45:46;;;;;;;9.52;1.95;;;10.00;99.90;;;;;;5090394;28;20230;-83
2022/10/02 02:48:21;;;;;;;3.65;1.25;;;10.10;99.90;;;;;;5090212;28;20047;-82
2022/10/02 02:51:16;;;;;;;7.30;1.30;;;10.10;99.90;;;;;;5090572;28;20082;-82
2022/10/02 02:54:02;;;;;;;8.52;1.58;;;10.00;99.90;;;;;;5090313;28;20515;-82
2022/10/02 02:56:31;;;;;;;6.22;1.63;;;10.00;99.90;;;;;;5106700;28;20049;-82
2022/10/02 02:59:07;;;;;;;3.53;1.10;;;10.10;99.90;;;;;;5089928;28;20090;-81
2022/10/02 03:01:33;;;;;;;9.05;1.30;;;10.10;99.90;;;;;;5090439;28;20028;-82
2022/10/02 03:04:00;;;;;;;4.40;1.60;;;10.10;99.90;;;;;;5090114;28;20055;-82
2022/10/02 03:06:39;;;;;;;5.60;1.42;;;10.10;99.90;;;;;;5056984;28;20484;-83
2022/10/02 03:09:17;;;;;;;3.17;1.05;;;10.10;99.90;;;;;;5106364;28;20467;-82
2022/10/02 03:12:01;;;;;;;6.72;1.33;;;10.10;99.90;;;;;;5090342;28;20089;-82
2022/10/02 03:14:40;;;;;;;4.38;1.30;;;10.10;99.90;;;;;;5089901;28;20752;-83
2022/10/02 03:17:24;;;;;;;7.28;1.35;;;10.20;99.90;;;;;;5108977;28;20123;-82
2022/10/02 03:20:47;;;;;;;8.57;1.30;;;10.20;99.90;;;;;;5110041;28;20480;-82
2022/10/02 03:23:44;;;;;;;5.18;1.45;;;10.20;99.90;;;;;;5051851;28;20143;-82
2022/10/02 03:26:19;;;;;;;5.95;1.10;;;10.30;99.90;;;;;;5042184;28;20048;-82
2022/10/02 03:28:52;;;;;;;7.78;1.52;;;10.20;99.90;;;;;;5089280;28;20488;-83
2022/10/02 03:31:21;;;;;;;2.78;1.20;;;10.30;99.90;;;;;;5090166;28;20594;-82
2022/10/02 03:33:49;;;;;;;6.88;1.42;;;10.30;99.90;;;;;;5090057;28;20504;-83
2022/10/02 03:36:17;;;;;;;1.77;0.95;;;10.40;99.90;;;;;;5094948;28;20544;-83
2022/10/02 03:38:45;;;;;;;4.55;0.93;;;10.40;99.90;;;;;;5093523;28;20036;-82
2022/10/02 03:41:13;;;;;;;5.40;1.20;;;10.40;99.90;;;;;;5107757;28;20123;-83
2022/10/02 03:43:39;;;;;;;9.73;1.35;;;10.40;99.90;;;;;;5056962;28;20068;-83
2022/10/02 03:46:06;;;;;;;6.93;1.17;;;10.40;99.90;;;;;;5103390;28;20195;-82
2022/10/02 03:48:33;;;;;;;6.15;1.38;;;10.50;99.90;;;;;;5084127;28;20037;-83
2022/10/02 03:50:59;;;;;;;7.28;1.60;;;10.40;99.90;;;;;;5076685;28;20043;-82
2022/10/02 03:53:32;;;;;;;9.98;1.45;;;10.40;99.90;;;;;;5092409;28;20105;-82
2022/10/02 03:56:28;;;;;;;4.97;1.23;;;10.50;99.90;;;;;;5109168;28;20111;-83
2022/10/02 03:58:59;;;;;;;5.45;1.50;;;10.40;99.90;;;;;;5109808;28;20047;-83
2022/10/02 04:01:32;;;;;;;7.22;1.50;;;10.50;99.90;;;;;;5108977;28;20447;-82
2022/10/02 04:04:17;;;;;;;6.85;1.05;;;10.60;99.90;;;;;;5109304;28;20492;-82
2022/10/02 04:06:56;;;;;;;4.38;1.13;;;10.60;99.90;;;;;;5109703;28;20044;-82
2022/10/02 04:09:30;;;;;;;8.18;1.20;;;10.60;99.90;;;;;;5109690;28;20052;-82
2022/10/02 04:12:20;;;;;;;13.97;1.37;;;10.60;99.90;;;;;;5109503;28;20047;-82
2022/10/02 04:14:56;;;;;;;5.32;1.10;;;10.60;99.90;;;;;;5126050;28;20399;-82
2022/10/02 04:17:33;;;;;;;11.48;1.60;;;10.60;99.90;;;;;;5109092;28;20047;-83
2022/10/02 04:20:19;;;;;;;5.43;1.23;;;10.70;99.90;;;;;;5109169;28;20036;-82
2022/10/02 04:23:09;;;;;;;7.82;1.40;;;10.70;99.90;;;;;;5109373;28;20399;-83
2022/10/02 04:25:40;;;;;;;8.82;1.35;;;10.60;99.90;;;;;;5109523;28;20047;-82
2022/10/02 04:28:13;;;;;;;8.20;1.40;;;10.70;99.90;;;;;;5109043;28;20051;-82
2022/10/02 04:30:40;;;;;;;12.85;1.40;;;10.70;99.90;;;;;;5109250;28;20066;-83
2022/10/02 04:33:12;;;;;;;4.55;1.05;;;10.60;99.90;;;;;;5109334;28;20037;-83
2022/10/02 04:35:51;;;;;;;7.38;1.48;;;10.60;99.90;;;;;;5108990;28;20396;-82
2022/10/02 04:38:42;;;;;;;8.70;1.50;;;10.60;99.90;;;;;;5108729;28;20109;-82
2022/10/02 04:41:42;;;;;;;6.07;1.15;;;10.70;99.90;;;;;;5089076;28;20400;-83
2022/10/02 04:44:15;;;;;;;3.88;1.10;;;10.70;99.90;;;;;;5088999;28;20047;-83
2022/10/02 04:46:48;;;;;;;4.15;1.50;;;10.60;99.90;;;;;;5105438;28;20036;-82
2022/10/02 04:49:35;;;;;;;7.75;1.38;;;10.60;99.90;;;;;;5088688;28;20047;-82
2022/10/02 04:52:39;;;;;;;13.00;1.10;;;10.60;99.90;;;;;;5089321;28;20076;-82
2022/10/02 04:55:30;;;;;;;7.43;1.38;;;10.60;99.90;;;;;;5088760;28;20409;-82
2022/10/02 04:58:19;;;;;;;7.65;1.35;;;10.60;99.90;;;;;;5105480;28;20093;-83
2022/10/02 05:00:57;;;;;;;8.20;1.30;;;10.60;99.90;;;;;;5088987;28;20048;-83
2022/10/02 05:03:30;;;;;;;7.25;1.00;;;10.60;99.90;;;;;;5105244;28;20072;-82
2022/10/02 05:06:16;;;;;;;7.57;1.40;;;10.60;99.90;;;;;;5089119;28;20044;-82
2022/10/02 05:09:00;;;;;;;6.70;1.20;;;10.60;99.90;;;;;;5089050;28;20887;-82
2022/10/02 05:11:45;;;;;;;11.20;1.60;;;10.70;99.90;;;;;;5088226;28;20040;-83
2022/10/02 05:14:44;;;;;;;10.90;1.35;;;10.70;99.90;;;;;;5089585;28;20040;-83
2022/10/02 05:17:41;;;;;;;3.63;1.10;;;10.70;99.90;;;;;;5087653;28;20453;-83
2022/10/02 05:20:26;;;;;;;10.25;1.92;;;10.70;99.90;;;;;;5105970;28;20033;-83
2022/10/02 05:23:30;;;;;;;6.27;1.10;;;10.70;99.90;;;;;;5128615;28;20071;-82
2022/10/02 05:26:34;;;;;;;4.15;1.25;;;10.70;99.90;;;;;;5112019;28;20278;-83
2022/10/02 05:29:23;;;;;;;6.15;1.33;;;10.70;99.90;;;;;;5128648;28;20047;-83
2022/10/02 05:32:21;;;;;;;3.72;1.20;;;10.70;99.90;;;;;;5111778;28;20480;-83
2022/10/02 05:35:14;;;;;;;9.82;1.52;;;10.70;99.90;;;;;;5112006;28;20400;-83
2022/10/02 05:37:58;;;;;;;5.50;1.08;;;10.70;99.90;;;;;;5111856;28;20553;-83
2022/10/02 05:40:30;;;;;;;12.15;1.33;;;10.70;99.90;;;;;;5111033;28;20097;-83
2022/10/02 05:43:26;;;;;;;6.13;1.23;;;10.70;99.90;;;;;;5111885;28;20067;-82
2022/10/02 05:45:59;;;;;;;5.40;0.85;;;10.70;99.90;;;;;;5098716;28;20051;-82
2022/10/02 05:48:33;;;;;;;6.80;1.23;;;10.80;99.90;;;;;;5111355;28;20050;-82
2022/10/02 05:51:11;;;;;;;8.50;1.40;;;10.70;99.90;;;;;;5111788;28;20035;-82
2022/10/02 05:53:46;;;;;;;6.93;1.17;;;10.60;99.90;;;;;;5111348;28;20463;-83
2022/10/02 05:56:39;;;;;;;5.95;0.98;;;10.60;99.90;;;;;;5111339;28;20064;-83
2022/10/02 05:59:17;;;;;;;10.25;1.45;;;10.60;99.90;;;;;;5111382;28;20419;-82
2022/10/02 06:01:47;;;;;;;3.80;0.93;;;10.60;99.90;;;;;;5127934;28;20048;-83
2022/10/02 06:04:27;;;;;;;6.93;1.10;;;10.50;99.90;;;;;;5111403;28;20478;-83
2022/10/02 06:06:59;;;;;;;9.77;1.38;;;10.50;99.90;;;;;;5127946;28;20836;-83
2022/10/02 06:09:35;;;;;;;6.47;1.45;;;10.50;99.90;;;;;;5094888;28;20073;-82
2022/10/02 06:12:11;;;;;;;6.35;1.30;;;10.60;99.90;;;;;;5128074;28;20036;-83
2022/10/02 06:14:42;;;;;;;8.50;1.60;;;10.60;99.90;;;;;;5110435;28;20044;-83
2022/10/02 06:17:14;;;;;;;9.35;1.42;;;10.60;99.90;;;;;;5111593;28;20086;-82
2022/10/02 06:20:12;;;;;;;10.73;1.65;;;10.60;99.90;;;;;;5110900;28;20043;-83
2022/10/02 06:22:46;;;;;;;7.30;1.25;;;10.60;99.90;;;;;;5110892;28;20051;-82
2022/10/02 06:25:24;;;;;;;9.30;1.40;;;10.60;99.90;;;;;;5127231;28;20514;-82
2022/10/02 06:27:58;;;;;;;8.75;1.48;;;10.60;99.90;;;;;;5110796;28;20032;-82
2022/10/02 06:30:28;;;;;;;12.35;1.48;;;10.60;99.90;;;;;;5110488;28;20040;-83
2022/10/02 06:33:25;;;;;;;8.00;1.58;;;10.60;99.90;;;;;;5111129;28;20039;-83
2022/10/02 06:36:12;;;;;;;7.22;1.58;;;10.60;99.90;;;;;;5100225;28;20127;-83
2022/10/02 06:38:57;;;;;;;11.38;1.73;;;10.60;99.90;;;;;;5127382;28;20070;-83
2022/10/02 06:42:05;;;;;;;5.72;1.27;;;10.60;99.90;;;;;;5090755;28;20033;-83
2022/10/02 06:44:47;;;;;;;12.55;1.70;;;10.70;99.90;;;;;;5076091;28;20048;-82
2022/10/02 06:47:25;;;;;;;14.13;2.03;;;10.60;99.90;;;;;;5090598;28;20047;-83
2022/10/02 06:50:18;;;;;;;9.13;1.55;;;10.70;99.90;;;;;;5107592;28;20071;-83
2022/10/02 06:53:12;;;;;;;8.38;1.60;;;10.70;99.90;;;;;;5110220;28;20147;-83
2022/10/02 06:56:11;;;;;;;12.82;1.75;;;10.80;99.90;;;;;;5109513;28;20047;-87
2022/10/02 06:58:38;;;;;;;8.73;1.60;;;10.80;99.90;;;;;;5108671;28;20040;-83
2022/10/02 07:01:49;;;;;;;8.20;1.42;;;10.80;99.90;;;;;;5116519;28;20036;-83
2022/10/02 07:04:41;;;;;;;7.47;1.63;;;10.90;99.90;;;;;;5127128;28;20044;-84
2022/10/02 07:07:13;;;;;;;11.25;1.63;;;10.90;99.90;;;;;;5110273;28;20040;-84
2022/10/02 07:09:46;;;;;;;10.30;1.60;;;10.90;99.90;;;;;;5109577;28;20043;-83
2022/10/02 07:13:01;;;;;;;13.68;1.73;;;11.00;99.90;;;;;;5108779;28;20035;-84
2022/10/02 07:15:57;;;;;;;8.20;1.50;;;11.20;99.90;;;;;;5120200;28;20036;-84
2022/10/02 07:18:30;;;;;;;15.23;1.85;;;11.30;99.90;;;;;;5107231;28;20040;-84
2022/10/02 07:21:14;;;;;;;5.30;1.48;;;11.40;99.90;;;;;;5109045;28;20043;-83
2022/10/02 07:24:05;;;;;;;8.02;1.40;;;11.60;99.90;;;;;;5106421;28;20032;-83
2022/10/02 07:26:50;;;;;;;8.88;1.17;;;11.80;99.90;;;;;;5080883;28;20037;-84
2022/10/02 07:29:41;;;;;;;10.15;1.70;;;11.80;99.90;;;;;;5103432;28;20043;-84
2022/10/02 07:32:48;;;;;;;10.02;1.50;;;11.90;99.90;;;;;;5126569;28;20032;-83
2022/10/02 07:35:52;;;;;;;9.55;1.80;;;11.90;99.90;;;;;;5108566;28;20040;-84
2022/10/02 07:38:43;;;;;;;8.80;2.03;;;11.90;99.90;;;;;;5092634;28;20047;-84
2022/10/02 07:41:12;;;;;;;11.70;2.00;;;12.00;99.90;;;;;;5105670;28;20407;-83
2022/10/02 07:43:58;;;;;;;6.47;1.95;;;12.00;99.90;;;;;;5109133;28;20028;-83
2022/10/02 07:46:57;;;;;;;4.80;1.00;;;12.00;99.90;;;;;;5091964;28;20131;-85
2022/10/02 07:49:54;;;;;;;8.68;1.20;;;12.00;99.90;;;;;;5098208;28;20138;-83
2022/10/02 07:52:54;;;;;;;5.55;0.98;;;12.10;99.90;;;;;;5100255;28;20496;-84
2022/10/02 07:55:23;;;;;;;9.18;1.80;;;12.10;99.90;;;;;;5097173;28;20052;-83
2022/10/02 07:58:13;;;;;;;10.55;1.30;;;12.10;99.90;;;;;;5108627;28;20393;-82
2022/10/02 08:00:49;;;;;;;7.38;1.30;;;12.10;99.90;;;;;;5105928;28;20075;-83
2022/10/02 08:03:37;;;;;;;7.07;1.15;;;12.10;99.90;;;;;;5100615;28;20040;-83
2022/10/02 08:06:05;;;;;;;10.07;1.63;;;12.10;99.90;;;;;;5105429;28;20040;-84
2022/10/02 08:08:47;;;;;;;8.85;1.88;;;12.20;99.90;;;;;;5074541;28;20040;-84
2022/10/02 08:11:29;;;;;;;8.30;1.85;;;12.20;99.90;;;;;;5118965;28;20491;-84
2022/10/02 08:14:06;;;;;;;10.68;2.22;;;12.30;99.90;;;;;;5099124;28;20080;-83
2022/10/02 08:16:56;;;;;;;6.78;1.98;;;12.30;99.90;;;;;;5097314;28;20412;-84
2022/10/02 08:19:35;;;;;;;5.88;1.30;;;12.40;99.90;;;;;;5122687;28;20036;-84
2022/10/02 08:22:11;;;;;;;8.48;1.52;;;12.50;99.90;;;;;;5096348;28;20068;-84
2022/10/02 08:24:56;;;;;;;11.63;3.20;;;12.60;99.90;;;;;;5103955;28;20044;-84
2022/10/02 08:27:29;;;;;;;11.73;1.40;;;12.60;99.90;;;;;;5102213;28;20078;-84
2022/10/02 08:30:05;;;;;;;6.10;1.45;;;12.60;99.90;;;;;;5092962;28;20040;-83
2022/10/02 08:32:35;;;;;;;16.27;1.60;;;12.70;99.90;;;;;;5122350;28;20040;-84
2022/10/02 08:35:13;;;;;;;13.50;1.55;;;12.70;99.90;;;;;;5108106;28;20079;-84
2022/10/02 08:37:48;;;;;;;8.25;1.17;;;12.60;99.90;;;;;;5089879;28;20036;-84
2022/10/02 08:40:37;;;;;;;4.70;1.13;;;12.60;99.90;;;;;;5108346;28;20502;-83
2022/10/02 08:43:16;;;;;;;5.32;1.13;;;12.60;99.90;;;;;;5107647;28;20032;-83
2022/10/02 08:45:49;;;;;;;6.88;1.33;;;12.60;99.90;;;;;;5104039;28;20040;-83
2022/10/02 08:48:22;;;;;;;7.43;1.25;;;12.60;99.90;;;;;;5109666;28;20051;-84
2022/10/02 08:51:09;;;;;;;6.95;1.20;;;12.60;99.90;;;;;;5112459;28;20048;-84
2022/10/02 08:54:18;;;;;;;4.65;1.13;;;12.60;99.90;;;;;;5094088;28;20099;-84
2022/10/02 08:56:51;;;;;;;9.63;1.20;;;12.80;99.90;;;;;;5093792;28;20052;-83
2022/10/02 08:59:36;;;;;;;10.07;1.48;;;12.80;99.90;;;;;;5097052;28;20049;-83
2022/10/02 09:02:40;;;;;;;3.83;1.20;;;13.00;99.90;;;;;;5101489;28;20355;-84
2022/10/02 09:05:40;;;;;;;4.97;0.90;;;12.90;99.90;;;;;;5126342;28;20036;-84
2022/10/02 09:08:09;;;;;;;3.97;0.95;;;13.00;99.90;;;;;;5099231;28;20510;-84
2022/10/02 09:11:10;;;;;;;9.18;1.30;;;12.90;99.90;;;;;;5111114;28;20046;-84
2022/10/02 09:13:56;;;;;;;5.20;1.30;;;12.90;99.90;;;;;;5100429;28;20489;-83
2022/10/02 09:17:02;;;;;;;12.18;1.35;;;13.00;99.90;;;;;;5106961;28;20047;-84
2022/10/02 09:19:56;;;;;;;4.88;1.23;;;13.10;99.90;;;;;;5103933;28;20051;-84
2022/10/02 09:22:46;;;;;;;6.93;1.55;;;13.00;99.90;;;;;;5111910;28;20036;-84
2022/10/02 09:25:50;;;;;;;5.65;1.40;;;13.10;99.90;;;;;;5111671;28;20036;-83
2022/10/02 09:28:53;;;;;;;3.92;1.05;;;13.20;99.90;;;;;;5111933;28;20440;-84
2022/10/02 09:31:39;;;;;;;10.80;1.50;;;13.20;99.90;;;;;;5111735;28;20067;-84
2022/10/02 09:34:21;;;;;;;4.60;1.30;;;13.20;99.90;;;;;;5111010;28;20047;-84
2022/10/02 09:37:45;;;;;;;5.93;1.40;;;13.20;99.90;;;;;;5107071;28;20464;-84
2022/10/02 09:40:46;;;;;;;5.95;1.40;;;13.20;99.90;;;;;;5072274;28;20511;-84
2022/10/02 09:43:34;;;;;;;5.00;1.17;;;13.20;99.90;;;;;;5072444;28;20556;-83
2022/10/02 09:46:20;;;;;;;9.82;2.35;;;13.20;99.90;;;;;;5102220;28;20138;-83
2022/10/02 09:49:18;;;;;;;4.95;1.17;;;13.30;99.90;;;;;;5104004;28;20048;-84
2022/10/02 09:52:09;;;;;;;6.65;1.40;;;13.30;99.90;;;;;;5127829;28;20047;-83
2022/10/02 09:55:06;;;;;;;5.07;1.10;;;13.30;99.90;;;;;;5109771;28;20096;-84
2022/10/02 09:58:24;;;;;;;3.55;1.15;;;13.30;99.90;;;;;;5109826;28;20051;-83
2022/10/02 10:01:18;;;;;;;5.25;1.35;;;13.40;99.90;;;;;;5122441;28;20040;-83
2022/10/02 10:04:08;;;;;;;8.02;1.15;;;13.40;99.90;;;;;;5127587;28;20089;-84
2022/10/02 10:07:15;;;;;;;5.38;1.40;;;13.40;99.90;;;;;;5110706;28;20404;-84
2022/10/02 10:10:17;;;;;;;6.97;1.20;;;13.50;99.90;;;;;;5106200;28;20496;-84
2022/10/02 10:13:08;;;;;;;10.10;1.70;;;13.70;99.90;;;;;;5106739;28;20048;-84
2022/10/02 10:15:56;;;;;;;8.25;1.38;;;13.90;99.90;;;;;;5098464;28;20115;-84
2022/10/02 10:18:49;;;;;;;4.72;1.20;;;14.10;99.90;;;;;;5104112;28;20039;-83
2022/10/02 10:21:31;;;;;;;10.75;1.38;;;14.20;99.90;;;;;;5083480;28;20726;-83
2022/10/02 10:24:15;;;;;;;10.77;1.80;;;14.40;99.90;;;;;;5123367;28;20047;-83
2022/10/02 10:26:54;;;;;;;9.65;1.20;;;14.50;99.90;;;;;;5103299;28;20126;-84
2022/10/02 10:29:39;;;;;;;10.10;1.20;;;14.60;99.90;;;;;;5105207;28;20480;-83
2022/10/02 10:32:12;;;;;;;8.07;1.40;;;14.80;99.90;;;;;;5110166;28;20098;-83
2022/10/02 10:34:54;;;;;;;5.15;1.33;;;14.80;99.90;;;;;;5109103;28;20036;-83
2022/10/02 10:40:40;;;;;;;8.32;1.15;;;15.00;99.90;;;;;;5124947;28;20407;-83
2022/10/02 10:43:42;;;;;;;5.03;1.20;;;15.10;99.90;;;;;;5109705;28;20043;-83
2022/10/02 10:46:38;;;;;;;16.05;1.63;;;15.20;99.90;;;;;;5098555;28;20286;-83
2022/10/02 10:49:26;;;;;;;6.85;1.30;;;15.30;99.90;;;;;;5111077;28;20048;-84
2022/10/02 10:52:10;;;;;;;7.88;1.55;;;15.50;99.90;;;;;;5109703;28;20107;-83
2022/10/02 10:55:31;;;;;;;6.60;1.50;;;15.50;99.90;;;;;;5100073;28;20515;-84
2022/10/02 10:58:20;;;;;;;5.00;1.40;;;15.70;99.90;;;;;;5098310;28;20067;-83
2022/10/02 11:00:54;;;;;;;4.72;1.10;;;15.90;99.90;;;;;;5126467;28;20036;-83
2022/10/02 11:03:46;;;;;;;7.43;1.30;;;16.10;99.90;;;;;;5109890;28;20036;-84
2022/10/02 11:06:34;;;;;;;9.95;1.58;;;16.00;99.90;;;;;;5099003;28;20040;-83
2022/10/02 11:09:16;;;;;;;8.27;1.25;;;16.00;99.90;;;;;;5101858;28;20055;-83
2022/10/02 11:12:07;;;;;;;4.22;1.27;;;16.00;99.90;;;;;;5109163;28;20055;-83
2022/10/02 11:14:46;;;;;;;7.05;1.02;;;16.00;99.90;;;;;;5109417;28;20092;-83
2022/10/02 11:17:26;;;;;;;10.65;1.48;;;16.00;99.90;;;;;;5109445;28;20075;-84
2022/10/02 11:19:52;;;;;;;9.57;1.10;;;15.80;99.90;;;;;;5109265;28;20047;-83
2022/10/02 11:22:42;;;;;;;12.10;1.45;;;15.60;99.90;;;;;;5108923;28;20415;-84
2022/10/02 11:25:20;;;;;;;8.68;1.25;;;15.40;99.90;;;;;;5109370;28;20042;-83
2022/10/02 11:27:59;;;;;;;5.35;1.00;;;15.20;99.90;;;;;;5109241;28;20109;-83
2022/10/02 11:30:50;;;;;;;5.45;0.90;;;15.10;99.90;;;;;;5107175;28;20770;-84
2022/10/02 11:33:37;;;;;;;6.65;1.20;;;15.10;99.90;;;;;;5109347;28;20051;-83
2022/10/02 11:36:19;;;;;;;10.68;1.30;;;15.20;99.90;;;;;;5108725;28;20128;-84
2022/10/02 11:39:04;;;;;;;8.00;1.58;;;15.40;99.90;;;;;;5109686;28;20140;-83
2022/10/02 11:41:47;;;;;;;8.02;1.35;;;15.70;99.90;;;;;;5106071;28;20040;-83
2022/10/02 11:44:42;;;;;;;6.88;1.10;;;15.80;99.90;;;;;;5089090;28;20121;-83
2022/10/02 11:47:30;;;;;;;4.55;0.77;;;15.80;99.90;;;;;;5088727;28;20036;-83
2022/10/02 11:50:22;;;;;;;9.23;1.05;;;15.70;99.90;;;;;;5100914;28;20492;-83
2022/10/02 11:53:15;;;;;;;4.65;1.02;;;15.90;99.90;;;;;;5088895;28;20041;-83
2022/10/02 11:56:30;;;;;;;4.50;1.10;;;15.80;99.90;;;;;;5115596;28;20051;-84
2022/10/02 11:59:08;;;;;;;5.05;1.33;;;15.90;99.90;;;;;;5099594;28;20518;-84
2022/10/02 12:01:44;;;;;;;3.92;0.90;;;16.00;99.90;;;;;;5101865;28;20047;-84
2022/10/02 12:04:40;;;;;;;4.50;1.00;;;16.10;99.90;;;;;;5104295;28;20397;-83
2022/10/02 12:07:35;;;;;;;8.05;1.63;;;16.10;99.90;;;;;;5106829;28;20048;-83
2022/10/02 12:10:23;;;;;;;6.13;0.90;;;16.10;99.90;;;;;;5101199;28;20412;-83
2022/10/02 12:12:56;;;;;;;6.05;0.90;;;16.20;99.90;;;;;;5125887;28;20040;-86
2022/10/02 12:15:45;;;;;;;7.35;0.93;;;16.20;99.90;;;;;;5108292;28;20047;-86
2022/10/02 12:18:20;;;;;;;8.27;1.02;;;16.30;99.90;;;;;;5125424;28;20032;-85
2022/10/02 12:27:25;;;;;;;5.50;0.90;;;16.30;99.90;;;;;;5129170;28;20134;-83
2022/10/02 12:30:02;;;;;;;6.90;0.90;;;16.20;99.90;;;;;;5112226;28;20043;-84
2022/10/02 12:33:00;;;;;;;4.15;1.00;;;16.20;99.90;;;;;;5112274;28;20044;-84
2022/10/02 12:35:36;;;;;;;8.40;1.42;;;16.20;99.90;;;;;;5129200;28;20088;-83
2022/10/02 12:38:25;;;;;;;5.13;1.02;;;16.20;99.90;;;;;;5112971;28;20032;-84
2022/10/02 12:40:57;;;;;;;6.60;0.80;;;16.10;99.90;;;;;;5112480;28;20047;-84
2022/10/02 12:43:54;;;;;;;5.07;0.98;;;16.00;99.90;;;;;;5129140;28;20040;-83
2022/10/02 12:46:27;;;;;;;6.03;1.08;;;16.00;99.90;;;;;;5111539;28;20404;-83
2022/10/02 12:49:03;;;;;;;7.95;1.13;;;16.00;99.90;;;;;;5112731;28;20185;-83
2022/10/02 12:51:53;;;;;;;3.53;0.80;;;15.90;99.90;;;;;;5128799;28;20419;-84
2022/10/02 12:54:32;;;;;;;11.02;1.30;;;15.90;99.90;;;;;;5111493;28;20135;-83
2022/10/02 12:57:50;;;;;;;6.45;1.30;;;15.90;99.90;;;;;;5128796;28;20121;-84
2022/10/02 13:00:15;;;;;;;4.47;1.10;;;15.90;99.90;;;;;;5128535;28;20105;-83
2022/10/02 13:03:04;;;;;;;6.47;1.27;;;15.70;99.90;;;;;;5128828;28;20097;-84
2022/10/02 13:05:51;;;;;;;6.90;0.98;;;15.60;99.90;;;;;;5111691;28;20035;-84
2022/10/02 13:08:40;;;;;;;6.13;1.45;;;15.40;99.90;;;;;;5128687;28;20044;-84
2022/10/02 13:11:21;;;;;;;9.93;1.30;;;15.40;99.90;;;;;;5128848;28;20036;-84
2022/10/02 13:13:55;;;;;;;3.88;0.77;;;15.50;99.90;;;;;;5103475;28;20599;-84
2022/10/02 13:16:51;;;;;;;7.72;1.60;;;15.50;99.90;;;;;;5110473;28;20036;-84
2022/10/02 13:20:09;;;;;;;7.82;1.10;;;15.70;99.90;;;;;;5128304;28;20044;-84
2022/10/02 13:22:50;;;;;;;6.72;1.67;;;15.90;99.90;;;;;;5110918;28;20052;-84
2022/10/02 13:25:34;;;;;;;7.32;1.50;;;16.00;99.90;;;;;;5125056;28;20048;-83
2022/10/02 13:28:21;;;;;;;4.05;0.90;;;16.00;99.90;;;;;;5116403;28;20040;-84
2022/10/02 13:31:06;;;;;;;7.93;1.45;;;15.90;99.90;;;;;;5101173;28;20048;-84
2022/10/02 13:33:38;;;;;;;6.20;1.00;;;15.90;99.90;;;;;;5127946;28;20584;-84
2022/10/02 13:36:12;;;;;;;14.90;1.92;;;15.80;99.90;;;;;;5110071;28;20044;-84
2022/10/02 13:38:38;;;;;;;4.22;0.93;;;15.60;99.90;;;;;;5124159;28;20045;-84
2022/10/02 13:41:08;;;;;;;7.55;1.48;;;15.50;99.90;;;;;;5094357;28;20062;-84
2022/10/02 13:43:56;;;;;;;8.48;1.65;;;15.50;99.90;;;;;;5105729;28;20161;-84
2022/10/02 13:46:53;;;;;;;7.72;1.42;;;15.50;99.90;;;;;;5102629;28;20039;-84
2022/10/02 13:49:28;;;;;;;;;;;15.50;99.90;;;;;;5128662;28;20040;-84
2022/10/02 13:52:03;;;;;;;5.93;0.85;;;15.40;99.90;;;;;;5128448;28;19923;-84
2022/10/02 13:54:49;;;;;;;7.40;1.05;;;15.30;99.90;;;;;;5111335;28;20040;-83
2022/10/02 13:57:21;;;;;;;;;;;15.10;99.90;;;;;;5111726;28;20044;-84
2022/10/02 14:00:01;;;;;;;8.48;1.33;;;15.10;99.90;;;;;;5128309;28;19920;-83
2022/10/02 14:02:27;;;;;;;18.55;1.33;;;15.00;99.90;;;;;;5111022;28;20404;-84
2022/10/02 14:05:04;;;;;;;7.55;1.40;;;14.90;99.90;;;;;;5111145;28;20051;-84
2022/10/02 14:07:57;;;;;;;4.70;0.88;;;14.80;99.90;;;;;;5111122;28;20079;-84
2022/10/02 14:10:51;;;;;;;9.07;1.30;;;14.80;99.90;;;;;;5108768;28;20504;-84
2022/10/02 14:13:43;;;;;;;6.82;1.20;;;14.70;99.90;;;;;;5127701;28;20127;-84
2022/10/02 14:16:15;;;;;;;5.35;1.17;;;14.70;99.90;;;;;;5110961;28;20036;-84
2022/10/02 14:19:21;;;;;;;6.07;1.10;;;14.70;99.90;;;;;;5111106;28;20044;-84
2022/10/02 14:22:01;;;;;;;9.35;1.58;;;14.80;99.90;;;;;;5110133;28;20043;-84